Terminal Aerodrome Forecast
Issued by NWS

Home | Current Version | Previous Version | Text Only | Print | Product List | Glossary On
Versions: 1 2 3 4 5 6 7 8 9 10 11 12 13 14 15 16
000
FTUS44 KLIX 261424 AAA
TAFMSY
TAF AMD
KMSY 261424Z 2614/2712 15011KT P6SM BKN030
     FM261600 17017KT P6SM BKN040
     FM262300 19018KT P6SM BKN025
     FM270000 19017KT P6SM BKN015
     FM270600 31007KT 3SM -TSRA OVC015CB
     FM271000 32006KT P6SM BKN025 OVC040=

USA.gov is the U.S. government's official web portal to all federal, state and local government web resources and services.